sensor_id;sensor_type;location;lat;lon;timestamp;pressure;altitude;pressure_sealevel;temperature;humidity
68137;BME280;54939;50.826;9.030;2022-11-15T00:00:06;98295.97;;;9.60;67.22
68137;BME280;54939;50.826;9.030;2022-11-15T00:00:36;98294.94;;;9.61;67.70
68137;BME280;54939;50.826;9.030;2022-11-15T00:01:09;98293.13;;;9.62;67.22
68137;BME280;54939;50.826;9.030;2022-11-15T00:01:43;98296.94;;;9.59;67.26
68137;BME280;54939;50.826;9.030;2022-11-15T00:02:14;98305.78;;;9.60;67.52
68137;BME280;54939;50.826;9.030;2022-11-15T00:02:44;98303.13;;;9.60;67.48
68137;BME280;54939;50.826;9.030;2022-11-15T00:03:15;98302.28;;;9.59;67.46
68137;BME280;54939;50.826;9.030;2022-11-15T00:03:45;98304.78;;;9.61;67.50
68137;BME280;54939;50.826;9.030;2022-11-15T00:04:16;98301.44;;;9.59;67.49
68137;BME280;54939;50.826;9.030;2022-11-15T00:04:46;98305.09;;;9.58;67.76
68137;BME280;54939;50.826;9.030;2022-11-15T00:05:16;98302.94;;;9.61;67.45
68137;BME280;54939;50.826;9.030;2022-11-15T00:05:46;98305.59;;;9.61;67.60
68137;BME280;54939;50.826;9.030;2022-11-15T00:06:17;98308.59;;;9.58;67.90
68137;BME280;54939;50.826;9.030;2022-11-15T00:06:47;98306.78;;;9.59;67.64
68137;BME280;54939;50.826;9.030;2022-11-15T00:07:17;98304.25;;;9.57;67.85
68137;BME280;54939;50.826;9.030;2022-11-15T00:07:47;98302.44;;;9.58;67.88
68137;BME280;54939;50.826;9.030;2022-11-15T00:08:18;98307.91;;;9.56;67.65
68137;BME280;54939;50.826;9.030;2022-11-15T00:08:48;98308.91;;;9.55;67.72
68137;BME280;54939;50.826;9.030;2022-11-15T00:09:19;98300.75;;;9.57;67.56
68137;BME280;54939;50.826;9.030;2022-11-15T00:09:49;98298.94;;;9.57;67.96
68137;BME280;54939;50.826;9.030;2022-11-15T00:10:19;98300.75;;;9.57;67.75
68137;BME280;54939;50.826;9.030;2022-11-15T00:10:55;98297.25;;;9.56;67.98
68137;BME280;54939;50.826;9.030;2022-11-15T00:11:25;98300.91;;;9.55;68.08
68137;BME280;54939;50.826;9.030;2022-11-15T00:11:56;98284.91;;;9.55;67.90
68137;BME280;54939;50.826;9.030;2022-11-15T00:12:27;98284.75;;;9.57;68.00
68137;BME280;54939;50.826;9.030;2022-11-15T00:12:57;98292.47;;;9.60;67.71
68137;BME280;54939;50.826;9.030;2022-11-15T00:13:27;98290.09;;;9.57;67.72
68137;BME280;54939;50.826;9.030;2022-11-15T00:13:58;98296.41;;;9.56;67.68
68137;BME280;54939;50.826;9.030;2022-11-15T00:14:28;98285.75;;;9.56;67.97
68137;BME280;54939;50.826;9.030;2022-11-15T00:14:58;98292.47;;;9.60;67.59
68137;BME280;54939;50.826;9.030;2022-11-15T00:15:29;98286.44;;;9.58;67.52
68137;BME280;54939;50.826;9.030;2022-11-15T00:16:00;98285.44;;;9.59;68.00
68137;BME280;54939;50.826;9.030;2022-11-15T00:16:30;98291.63;;;9.59;67.64
68137;BME280;54939;50.826;9.030;2022-11-15T00:17:00;98287.97;;;9.60;67.57
68137;BME280;54939;50.826;9.030;2022-11-15T00:17:30;98296.81;;;9.61;67.79
68137;BME280;54939;50.826;9.030;2022-11-15T00:18:01;98289.94;;;9.58;67.88
68137;BME280;54939;50.826;9.030;2022-11-15T00:18:31;98293.75;;;9.56;67.78
68137;BME280;54939;50.826;9.030;2022-11-15T00:19:02;98297.78;;;9.60;67.60
68137;BME280;54939;50.826;9.030;2022-11-15T00:19:32;98294.78;;;9.63;67.97
68137;BME280;54939;50.826;9.030;2022-11-15T00:20:03;98299.28;;;9.62;67.65
68137;BME280;54939;50.826;9.030;2022-11-15T00:20:34;98296.94;;;9.59;67.78
68137;BME280;54939;50.826;9.030;2022-11-15T00:21:05;98302.28;;;9.59;67.78
68137;BME280;54939;50.826;9.030;2022-11-15T00:21:36;98298.94;;;9.57;67.79
68137;BME280;54939;50.826;9.030;2022-11-15T00:22:06;98295.44;;;9.57;67.95
68137;BME280;54939;50.826;9.030;2022-11-15T00:22:36;98299.25;;;9.54;68.20
68137;BME280;54939;50.826;9.030;2022-11-15T00:23:06;98295.75;;;9.54;67.87
68137;BME280;54939;50.826;9.030;2022-11-15T00:23:37;98298.09;;;9.57;67.69
68137;BME280;54939;50.826;9.030;2022-11-15T00:24:07;98296.59;;;9.54;67.80
68137;BME280;54939;50.826;9.030;2022-11-15T00:24:37;98298.94;;;9.57;67.99
68137;BME280;54939;50.826;9.030;2022-11-15T00:25:08;98302.59;;;9.56;68.23
68137;BME280;54939;50.826;9.030;2022-11-15T00:25:38;98300.59;;;9.58;67.96
68137;BME280;54939;50.826;9.030;2022-11-15T00:26:11;98297.78;;;9.60;67.94
68137;BME280;54939;50.826;9.030;2022-11-15T00:26:42;98299.63;;;9.59;67.66
68137;BME280;54939;50.826;9.030;2022-11-15T00:27:12;98302.13;;;9.61;67.55
68137;BME280;54939;50.826;9.030;2022-11-15T00:27:42;98306.78;;;9.59;67.87
68137;BME280;54939;50.826;9.030;2022-11-15T00:28:13;98308.44;;;9.60;67.36
68137;BME280;54939;50.826;9.030;2022-11-15T00:28:43;98299.63;;;9.59;67.42
68137;BME280;54939;50.826;9.030;2022-11-15T00:29:13;98301.44;;;9.59;67.69
68137;BME280;54939;50.826;9.030;2022-11-15T00:29:43;98295.13;;;9.60;67.74
68137;BME280;54939;50.826;9.030;2022-11-15T00:30:14;98303.97;;;9.60;68.17
68137;BME280;54939;50.826;9.030;2022-11-15T00:30:44;98302.13;;;9.61;68.07
68137;BME280;54939;50.826;9.030;2022-11-15T00:31:14;98303.97;;;9.60;68.01
68137;BME280;54939;50.826;9.030;2022-11-15T00:31:44;98295.84;;;9.70;67.68
68137;BME280;54939;50.826;9.030;2022-11-15T00:32:14;98300.66;;;9.66;67.48
68137;BME280;54939;50.826;9.030;2022-11-15T00:32:45;98292.50;;;9.68;67.07
68137;BME280;54939;50.826;9.030;2022-11-15T00:33:15;98291.97;;;9.64;67.66
68137;BME280;54939;50.826;9.030;2022-11-15T00:33:45;98288.16;;;9.67;67.51
68137;BME280;54939;50.826;9.030;2022-11-15T00:34:15;98294.50;;;9.66;67.42
68137;BME280;54939;50.826;9.030;2022-11-15T00:34:45;98290.00;;;9.66;67.48
68137;BME280;54939;50.826;9.030;2022-11-15T00:35:16;98287.00;;;9.69;67.71
68137;BME280;54939;50.826;9.030;2022-11-15T00:35:46;98291.50;;;9.69;67.74
68137;BME280;54939;50.826;9.030;2022-11-15T00:36:16;98294.84;;;9.71;67.00
68137;BME280;54939;50.826;9.030;2022-11-15T00:36:46;98288.16;;;9.67;67.76
68137;BME280;54939;50.826;9.030;2022-11-15T00:37:17;98285.50;;;9.67;67.06
68137;BME280;54939;50.826;9.030;2022-11-15T00:37:47;98291.81;;;9.66;67.33
68137;BME280;54939;50.826;9.030;2022-11-15T00:38:17;98285.66;;;9.65;67.30
68137;BME280;54939;50.826;9.030;2022-11-15T00:38:47;98287.47;;;9.65;67.10
68137;BME280;54939;50.826;9.030;2022-11-15T00:39:18;98295.97;;;9.68;67.74
68137;BME280;54939;50.826;9.030;2022-11-15T00:39:48;98291.66;;;9.67;67.10
68137;BME280;54939;50.826;9.030;2022-11-15T00:40:18;98292.97;;;9.63;67.54
68137;BME280;54939;50.826;9.030;2022-11-15T00:40:48;98286.94;;;9.61;67.49
68137;BME280;54939;50.826;9.030;2022-11-15T00:41:18;98289.78;;;9.60;67.56
68137;BME280;54939;50.826;9.030;2022-11-15T00:41:49;98290.78;;;9.59;67.81
68137;BME280;54939;50.826;9.030;2022-11-15T00:42:19;98290.78;;;9.59;67.60
68137;BME280;54939;50.826;9.030;2022-11-15T00:42:49;98287.44;;;9.57;67.72
68137;BME280;54939;50.826;9.030;2022-11-15T00:43:19;98285.75;;;9.56;68.00
68137;BME280;54939;50.826;9.030;2022-11-15T00:43:49;98284.06;;;9.55;67.97
68137;BME280;54939;50.826;9.030;2022-11-15T00:44:20;98282.09;;;9.57;68.08
68137;BME280;54939;50.826;9.030;2022-11-15T00:44:50;98290.09;;;9.57;67.45
68137;BME280;54939;50.826;9.030;2022-11-15T00:45:20;98293.44;;;9.59;67.67
68137;BME280;54939;50.826;9.030;2022-11-15T00:45:50;98284.63;;;9.58;67.38
68137;BME280;54939;50.826;9.030;2022-11-15T00:46:20;98287.78;;;9.62;67.92
68137;BME280;54939;50.826;9.030;2022-11-15T00:46:50;98284.28;;;9.61;68.03
68137;BME280;54939;50.826;9.030;2022-11-15T00:47:21;98286.28;;;9.59;68.00
68137;BME280;54939;50.826;9.030;2022-11-15T00:47:51;98287.13;;;9.60;67.69
68137;BME280;54939;50.826;9.030;2022-11-15T00:48:21;98279.28;;;9.58;68.17
68137;BME280;54939;50.826;9.030;2022-11-15T00:48:52;98282.78;;;9.59;68.06
68137;BME280;54939;50.826;9.030;2022-11-15T00:49:22;98281.13;;;9.58;68.13
68137;BME280;54939;50.826;9.030;2022-11-15T00:49:52;98286.44;;;9.58;68.12
68137;BME280;54939;50.826;9.030;2022-11-15T00:50:22;98281.81;;;9.60;68.25
68137;BME280;54939;50.826;9.030;2022-11-15T00:50:52;98282.94;;;9.57;68.23
68137;BME280;54939;50.826;9.030;2022-11-15T00:51:23;98289.09;;;9.58;67.70
68137;BME280;54939;50.826;9.030;2022-11-15T00:51:53;98288.97;;;9.59;68.20
68137;BME280;54939;50.826;9.030;2022-11-15T00:52:23;98287.13;;;9.60;67.68
68137;BME280;54939;50.826;9.030;2022-11-15T00:52:53;98286.28;;;9.59;67.64
68137;BME280;54939;50.826;9.030;2022-11-15T00:53:23;98284.28;;;9.61;67.76
68137;BME280;54939;50.826;9.030;2022-11-15T00:53:53;98281.94;;;9.58;67.79
68137;BME280;54939;50.826;9.030;2022-11-15T00:54:24;98283.63;;;9.59;67.92
68137;BME280;54939;50.826;9.030;2022-11-15T00:54:54;98284.28;;;9.61;67.26
68137;BME280;54939;50.826;9.030;2022-11-15T00:55:24;98277.13;;;9.62;67.75
68137;BME280;54939;50.826;9.030;2022-11-15T00:55:54;98286.66;;;9.64;67.50
68137;BME280;54939;50.826;9.030;2022-11-15T00:56:24;98285.97;;;9.62;67.56
68137;BME280;54939;50.826;9.030;2022-11-15T00:56:54;98274.66;;;9.60;67.91
68137;BME280;54939;50.826;9.030;2022-11-15T00:57:24;98274.78;;;9.59;67.84
68137;BME280;54939;50.826;9.030;2022-11-15T00:57:55;98266.81;;;9.59;67.76
68137;BME280;54939;50.826;9.030;2022-11-15T00:58:25;98278.59;;;9.56;67.94
68137;BME280;54939;50.826;9.030;2022-11-15T00:58:55;98270.75;;;9.55;68.15
68137;BME280;54939;50.826;9.030;2022-11-15T00:59:25;98270.94;;;9.53;68.18
68137;BME280;54939;50.826;9.030;2022-11-15T00:59:55;98276.09;;;9.55;68.17
68137;BME280;54939;50.826;9.030;2022-11-15T01:00:25;98276.28;;;9.53;68.64
68137;BME280;54939;50.826;9.030;2022-11-15T01:00:56;98266.94;;;9.57;67.78
68137;BME280;54939;50.826;9.030;2022-11-15T01:01:26;98279.44;;;9.57;68.13
68137;BME280;54939;50.826;9.030;2022-11-15T01:01:56;98271.44;;;9.57;68.17
68137;BME280;54939;50.826;9.030;2022-11-15T01:02:26;98280.28;;;9.57;68.01
68137;BME280;54939;50.826;9.030;2022-11-15T01:02:57;98276.78;;;9.57;67.76
68137;BME280;54939;50.826;9.030;2022-11-15T01:03:28;98271.59;;;9.55;68.33
68137;BME280;54939;50.826;9.030;2022-11-15T01:03:58;98273.28;;;9.56;68.29
68137;BME280;54939;50.826;9.030;2022-11-15T01:04:28;98273.47;;;9.63;67.79
68137;BME280;54939;50.826;9.030;2022-11-15T01:04:58;98269.97;;;9.62;67.81
68137;BME280;54939;50.826;9.030;2022-11-15T01:05:28;98269.13;;;9.62;68.07
68137;BME280;54939;50.826;9.030;2022-11-15T01:05:59;98268.13;;;9.63;67.53
68137;BME280;54939;50.826;9.030;2022-11-15T01:06:30;98266.47;;;9.62;67.79
68137;BME280;54939;50.826;9.030;2022-11-15T01:07:00;98268.47;;;9.60;67.88
68137;BME280;54939;50.826;9.030;2022-11-15T01:07:30;98264.81;;;9.61;68.33
68137;BME280;54939;50.826;9.030;2022-11-15T01:08:00;98270.31;;;9.59;67.93
68137;BME280;54939;50.826;9.030;2022-11-15T01:08:30;98271.44;;;9.57;67.93
68137;BME280;54939;50.826;9.030;2022-11-15T01:09:01;98272.28;;;9.57;68.43
68137;BME280;54939;50.826;9.030;2022-11-15T01:09:31;98271.28;;;9.58;67.70
68137;BME280;54939;50.826;9.030;2022-11-15T01:10:01;98272.28;;;9.57;68.20
68137;BME280;54939;50.826;9.030;2022-11-15T01:10:31;98269.63;;;9.57;67.98
68137;BME280;54939;50.826;9.030;2022-11-15T01:11:05;98276.91;;;9.55;68.40
68137;BME280;54939;50.826;9.030;2022-11-15T01:11:35;98276.78;;;9.57;67.92
68137;BME280;54939;50.826;9.030;2022-11-15T01:12:06;98277.75;;;9.56;68.09
68137;BME280;54939;50.826;9.030;2022-11-15T01:12:36;98271.44;;;9.57;68.24
68137;BME280;54939;50.826;9.030;2022-11-15T01:13:06;98268.78;;;9.57;67.84
68137;BME280;54939;50.826;9.030;2022-11-15T01:13:37;98272.28;;;9.57;67.86
68137;BME280;54939;50.826;9.030;2022-11-15T01:14:07;98269.13;;;9.62;67.68
68137;BME280;54939;50.826;9.030;2022-11-15T01:14:38;98271.13;;;9.60;68.10
68137;BME280;54939;50.826;9.030;2022-11-15T01:15:08;98274.66;;;9.60;67.98
68137;BME280;54939;50.826;9.030;2022-11-15T01:15:39;98274.66;;;9.60;67.88
68137;BME280;54939;50.826;9.030;2022-11-15T01:16:13;98268.47;;;9.60;67.83
68137;BME280;54939;50.826;9.030;2022-11-15T01:16:43;98270.31;;;9.59;67.82
68137;BME280;54939;50.826;9.030;2022-11-15T01:17:13;98269.97;;;9.62;67.99
68137;BME280;54939;50.826;9.030;2022-11-15T01:17:43;98268.00;;;9.64;67.47
68137;BME280;54939;50.826;9.030;2022-11-15T01:18:14;98269.66;;;9.65;67.85
68137;BME280;54939;50.826;9.030;2022-11-15T01:18:44;98269.97;;;9.62;68.00
68137;BME280;54939;50.826;9.030;2022-11-15T01:19:14;98262.97;;;9.61;67.95
68137;BME280;54939;50.826;9.030;2022-11-15T01:19:44;98267.50;;;9.61;68.21
68137;BME280;54939;50.826;9.030;2022-11-15T01:20:15;98265.63;;;9.61;68.07
68137;BME280;54939;50.826;9.030;2022-11-15T01:20:45;98265.63;;;9.61;67.98
68137;BME280;54939;50.826;9.030;2022-11-15T01:21:16;98263.97;;;9.60;68.16
68137;BME280;54939;50.826;9.030;2022-11-15T01:21:50;98264.13;;;9.59;68.28
68137;BME280;54939;50.826;9.030;2022-11-15T01:22:20;98266.13;;;9.57;68.23
68137;BME280;54939;50.826;9.030;2022-11-15T01:22:50;98270.59;;;9.56;68.47
68137;BME280;54939;50.826;9.030;2022-11-15T01:23:21;98260.94;;;9.55;68.10
68137;BME280;54939;50.826;9.030;2022-11-15T01:23:57;98263.44;;;9.57;68.03
68137;BME280;54939;50.826;9.030;2022-11-15T01:24:27;98276.63;;;9.58;67.81
68137;BME280;54939;50.826;9.030;2022-11-15T01:24:57;98267.78;;;9.58;68.38
68137;BME280;54939;50.826;9.030;2022-11-15T01:25:27;98268.47;;;9.60;68.09
68137;BME280;54939;50.826;9.030;2022-11-15T01:25:58;98263.66;;;9.63;67.78
68137;BME280;54939;50.826;9.030;2022-11-15T01:26:28;98258.31;;;9.63;68.07
68137;BME280;54939;50.826;9.030;2022-11-15T01:26:59;98261.31;;;9.60;68.31
68137;BME280;54939;50.826;9.030;2022-11-15T01:27:29;98255.31;;;9.58;67.81
68137;BME280;54939;50.826;9.030;2022-11-15T01:27:59;98265.63;;;9.61;68.30
68137;BME280;54939;50.826;9.030;2022-11-15T01:28:30;98257.47;;;9.63;67.94
68137;BME280;54939;50.826;9.030;2022-11-15T01:29:01;98253.13;;;9.62;68.11
68137;BME280;54939;50.826;9.030;2022-11-15T01:29:31;98255.16;;;9.60;67.88
68137;BME280;54939;50.826;9.030;2022-11-15T01:30:01;98252.63;;;9.58;68.20
68137;BME280;54939;50.826;9.030;2022-11-15T01:30:32;98255.44;;;9.57;68.29
68137;BME280;54939;50.826;9.030;2022-11-15T01:31:03;98258.97;;;9.57;68.27
68137;BME280;54939;50.826;9.030;2022-11-15T01:31:33;98257.28;;;9.56;67.97
68137;BME280;54939;50.826;9.030;2022-11-15T01:32:04;98260.78;;;9.57;68.29
68137;BME280;54939;50.826;9.030;2022-11-15T01:32:34;98264.28;;;9.57;68.15
68137;BME280;54939;50.826;9.030;2022-11-15T01:33:04;98253.13;;;9.62;68.11
68137;BME280;54939;50.826;9.030;2022-11-15T01:33:34;98261.97;;;9.62;68.00
68137;BME280;54939;50.826;9.030;2022-11-15T01:34:06;98255.81;;;9.62;67.92
68137;BME280;54939;50.826;9.030;2022-11-15T01:34:36;98262.97;;;9.61;67.93
68137;BME280;54939;50.826;9.030;2022-11-15T01:35:06;98269.13;;;9.62;67.97
68137;BME280;54939;50.826;9.030;2022-11-15T01:35:39;98254.81;;;9.63;68.13
68137;BME280;54939;50.826;9.030;2022-11-15T01:36:11;98263.81;;;9.62;67.56
68137;BME280;54939;50.826;9.030;2022-11-15T01:36:41;98262.16;;;9.61;68.15
68137;BME280;54939;50.826;9.030;2022-11-15T01:37:11;98261.13;;;9.62;67.82
68137;BME280;54939;50.826;9.030;2022-11-15T01:37:42;98261.13;;;9.62;68.05
68137;BME280;54939;50.826;9.030;2022-11-15T01:38:12;98257.63;;;9.61;67.89
68137;BME280;54939;50.826;9.030;2022-11-15T01:38:42;98254.97;;;9.61;67.73
68137;BME280;54939;50.826;9.030;2022-11-15T01:39:12;98255.66;;;9.63;68.01
68137;BME280;54939;50.826;9.030;2022-11-15T01:39:42;98260.47;;;9.60;68.13
68137;BME280;54939;50.826;9.030;2022-11-15T01:40:12;98258.47;;;9.62;67.96
68137;BME280;54939;50.826;9.030;2022-11-15T01:40:43;98262.97;;;9.61;68.01
68137;BME280;54939;50.826;9.030;2022-11-15T01:41:14;98262.16;;;9.61;68.15
68137;BME280;54939;50.826;9.030;2022-11-15T01:41:44;98258.66;;;9.60;67.87
68137;BME280;54939;50.826;9.030;2022-11-15T01:42:15;98251.50;;;9.61;67.94
68137;BME280;54939;50.826;9.030;2022-11-15T01:42:45;98256.00;;;9.60;67.80
68137;BME280;54939;50.826;9.030;2022-11-15T01:43:22;98254.81;;;9.63;67.97
68137;BME280;54939;50.826;9.030;2022-11-15T01:43:54;98261.66;;;9.65;67.38
68137;BME280;54939;50.826;9.030;2022-11-15T01:45:00;98252.84;;;9.65;67.60
68137;BME280;54939;50.826;9.030;2022-11-15T01:45:30;98251.00;;;9.65;67.93
68137;BME280;54939;50.826;9.030;2022-11-15T01:46:06;98247.66;;;9.63;67.79
68137;BME280;54939;50.826;9.030;2022-11-15T01:46:36;98252.00;;;9.64;67.73
68137;BME280;54939;50.826;9.030;2022-11-15T01:47:45;98253.97;;;9.62;68.12
68137;BME280;54939;50.826;9.030;2022-11-15T01:48:17;98246.16;;;9.61;67.98
68137;BME280;54939;50.826;9.030;2022-11-15T01:48:47;98252.16;;;9.63;67.75
68137;BME280;54939;50.826;9.030;2022-11-15T01:49:19;98247.16;;;9.60;67.86
68137;BME280;54939;50.826;9.030;2022-11-15T01:49:57;98246.81;;;9.63;67.86
68137;BME280;54939;50.826;9.030;2022-11-15T01:50:30;98247.81;;;9.62;67.93
68137;BME280;54939;50.826;9.030;2022-11-15T01:51:02;98236.31;;;9.61;68.09
68137;BME280;54939;50.826;9.030;2022-11-15T01:51:34;98242.34;;;9.63;67.79
68137;BME280;54939;50.826;9.030;2022-11-15T01:52:06;98247.81;;;9.62;68.01
68137;BME280;54939;50.826;9.030;2022-11-15T01:52:37;98246.53;;;9.66;67.88
68137;BME280;54939;50.826;9.030;2022-11-15T01:53:09;98242.03;;;9.66;67.49
68137;BME280;54939;50.826;9.030;2022-11-15T01:53:40;98244.69;;;9.66;67.91
68137;BME280;54939;50.826;9.030;2022-11-15T01:54:13;98248.34;;;9.65;68.17
68137;BME280;54939;50.826;9.030;2022-11-15T01:54:45;98243.16;;;9.64;68.06
68137;BME280;54939;50.826;9.030;2022-11-15T01:55:18;98235.16;;;9.64;68.31
68137;BME280;54939;50.826;9.030;2022-11-15T01:55:49;98242.34;;;9.63;68.12
68137;BME280;54939;50.826;9.030;2022-11-15T01:56:20;98242.03;;;9.66;67.83
68137;BME280;54939;50.826;9.030;2022-11-15T01:57:12;98240.00;;;9.68;67.75
68137;BME280;54939;50.826;9.030;2022-11-15T01:57:42;98241.19;;;9.66;67.81
68137;BME280;54939;50.826;9.030;2022-11-15T01:58:13;98240.53;;;9.72;67.20
68137;BME280;54939;50.826;9.030;2022-11-15T01:58:43;98240.69;;;9.70;67.45
68137;BME280;54939;50.826;9.030;2022-11-15T01:59:14;98235.38;;;9.70;67.28
68137;BME280;54939;50.826;9.030;2022-11-15T01:59:45;98239.22;;;9.68;67.59
68137;BME280;54939;50.826;9.030;2022-11-15T02:00:15;98243.84;;;9.66;67.68
68137;BME280;54939;50.826;9.030;2022-11-15T02:00:46;98234.88;;;9.67;67.44
68137;BME280;54939;50.826;9.030;2022-11-15T02:01:17;98236.00;;;9.64;68.06
68137;BME280;54939;50.826;9.030;2022-11-15T02:01:47;98245.69;;;9.65;68.18
68137;BME280;54939;50.826;9.030;2022-11-15T02:02:18;98235.03;;;9.65;67.62
68137;BME280;54939;50.826;9.030;2022-11-15T02:02:48;98235.72;;;9.67;67.54
68137;BME280;54939;50.826;9.030;2022-11-15T02:03:18;98240.19;;;9.67;67.97
68137;BME280;54939;50.826;9.030;2022-11-15T02:03:52;98244.88;;;9.73;67.52
68137;BME280;54939;50.826;9.030;2022-11-15T02:04:26;98245.19;;;9.70;67.65
68137;BME280;54939;50.826;9.030;2022-11-15T02:04:58;98237.72;;;9.73;67.63
68137;BME280;54939;50.826;9.030;2022-11-15T02:05:28;98240.69;;;9.70;67.80
68137;BME280;54939;50.826;9.030;2022-11-15T02:06:00;98244.53;;;9.68;67.53
68137;BME280;54939;50.826;9.030;2022-11-15T02:06:30;98235.84;;;9.66;67.48
68137;BME280;54939;50.826;9.030;2022-11-15T02:07:01;98234.34;;;9.63;67.61
68137;BME280;54939;50.826;9.030;2022-11-15T02:07:32;98240.34;;;9.65;67.84
68137;BME280;54939;50.826;9.030;2022-11-15T02:08:04;98234.88;;;9.67;67.98
68137;BME280;54939;50.826;9.030;2022-11-15T02:08:35;98240.00;;;9.68;67.91
68137;BME280;54939;50.826;9.030;2022-11-15T02:09:06;98237.69;;;9.65;67.87
68137;BME280;54939;50.826;9.030;2022-11-15T02:09:36;98232.50;;;9.64;67.66
68137;BME280;54939;50.826;9.030;2022-11-15T02:10:08;98234.34;;;9.63;68.06
68137;BME280;54939;50.826;9.030;2022-11-15T02:10:39;98233.50;;;9.63;68.15
68137;BME280;54939;50.826;9.030;2022-11-15T02:11:09;98232.84;;;9.61;68.11
68137;BME280;54939;50.826;9.030;2022-11-15T02:11:40;98230.31;;;9.59;68.21
68137;BME280;54939;50.826;9.030;2022-11-15T02:12:11;98233.84;;;9.60;67.98
68137;BME280;54939;50.826;9.030;2022-11-15T02:12:43;98232.16;;;9.59;68.05
68137;BME280;54939;50.826;9.030;2022-11-15T02:13:16;98233.00;;;9.59;68.13
68137;BME280;54939;50.826;9.030;2022-11-15T02:13:47;98236.66;;;9.58;68.19
68137;BME280;54939;50.826;9.030;2022-11-15T02:14:18;98235.31;;;9.62;67.92
68137;BME280;54939;50.826;9.030;2022-11-15T02:14:51;98238.19;;;9.61;67.89
68137;BME280;54939;50.826;9.030;2022-11-15T02:15:24;98232.00;;;9.60;67.63
68137;BME280;54939;50.826;9.030;2022-11-15T02:16:42;98229.34;;;9.60;67.82
68137;BME280;54939;50.826;9.030;2022-11-15T02:18:09;98235.16;;;9.64;68.21
68137;BME280;54939;50.826;9.030;2022-11-15T02:18:41;98226.19;;;9.65;67.90
68137;BME280;54939;50.826;9.030;2022-11-15T02:19:18;98231.66;;;9.63;67.90
68137;BME280;54939;50.826;9.030;2022-11-15T02:20:03;98225.84;;;9.60;68.15
68137;BME280;54939;50.826;9.030;2022-11-15T02:20:44;98230.38;;;9.67;67.58
68137;BME280;54939;50.826;9.030;2022-11-15T02:21:32;98227.03;;;9.65;67.70
68137;BME280;54939;50.826;9.030;2022-11-15T02:23:11;98225.34;;;9.64;67.73
68137;BME280;54939;50.826;9.030;2022-11-15T02:23:53;98223.66;;;9.63;67.86
68137;BME280;54939;50.826;9.030;2022-11-15T02:25:39;98222.69;;;9.64;67.64
68137;BME280;54939;50.826;9.030;2022-11-15T02:26:19;98220.31;;;9.61;67.77
68137;BME280;54939;50.826;9.030;2022-11-15T02:27:37;98219.81;;;9.58;67.95
68137;BME280;54939;50.826;9.030;2022-11-15T02:31:46;98216.03;;;9.68;67.46
68137;BME280;54939;50.826;9.030;2022-11-15T02:32:20;98216.66;;;9.62;67.78
68137;BME280;54939;50.826;9.030;2022-11-15T02:32:54;98215.69;;;9.63;67.93
68137;BME280;54939;50.826;9.030;2022-11-15T02:34:22;98213.34;;;9.60;67.75
68137;BME280;54939;50.826;9.030;2022-11-15T02:34:58;98219.19;;;9.64;67.62
68137;BME280;54939;50.826;9.030;2022-11-15T02:35:40;98211.34;;;9.62;67.87
68137;BME280;54939;50.826;9.030;2022-11-15T02:37:08;98211.53;;;9.61;67.82
68137;BME280;54939;50.826;9.030;2022-11-15T02:37:57;98212.50;;;9.60;67.88
68137;BME280;54939;50.826;9.030;2022-11-15T02:38:37;98222.69;;;9.64;67.47
68137;BME280;54939;50.826;9.030;2022-11-15T02:39:11;98207.38;;;9.66;67.51
68137;BME280;54939;50.826;9.030;2022-11-15T02:40:56;98216.38;;;9.65;67.60
68137;BME280;54939;50.826;9.030;2022-11-15T02:41:30;98222.00;;;9.62;67.97
68137;BME280;54939;50.826;9.030;2022-11-15T02:42:13;98209.34;;;9.64;67.61
68137;BME280;54939;50.826;9.030;2022-11-15T02:43:05;98214.69;;;9.64;67.56
68137;BME280;54939;50.826;9.030;2022-11-15T02:44:07;98209.34;;;9.64;67.71
68137;BME280;54939;50.826;9.030;2022-11-15T02:44:39;98208.22;;;9.67;67.71
68137;BME280;54939;50.826;9.030;2022-11-15T02:45:12;98209.88;;;9.68;67.65
68137;BME280;54939;50.826;9.030;2022-11-15T02:45:48;98209.34;;;9.64;67.85
68137;BME280;54939;50.826;9.030;2022-11-15T02:47:20;98211.72;;;9.67;67.69
68137;BME280;54939;50.826;9.030;2022-11-15T02:47:51;98210.19;;;9.65;68.07
68137;BME280;54939;50.826;9.030;2022-11-15T02:48:24;98214.69;;;9.64;67.77
68137;BME280;54939;50.826;9.030;2022-11-15T02:48:55;98207.53;;;9.65;67.57
68137;BME280;54939;50.826;9.030;2022-11-15T02:49:26;98214.69;;;9.64;67.67
68137;BME280;54939;50.826;9.030;2022-11-15T02:49:58;98211.88;;;9.66;67.51
68137;BME280;54939;50.826;9.030;2022-11-15T02:50:30;98211.88;;;9.66;67.97
68137;BME280;54939;50.826;9.030;2022-11-15T02:51:02;98216.03;;;9.68;67.68
68137;BME280;54939;50.826;9.030;2022-11-15T02:51:32;98215.22;;;9.68;67.90
68137;BME280;54939;50.826;9.030;2022-11-15T02:52:03;98206.53;;;9.66;67.72
68137;BME280;54939;50.826;9.030;2022-11-15T02:52:33;98210.19;;;9.65;67.93
68137;BME280;54939;50.826;9.030;2022-11-15T02:53:03;98212.56;;;9.68;67.88
68137;BME280;54939;50.826;9.030;2022-11-15T02:53:33;98213.69;;;9.65;67.72
68137;BME280;54939;50.826;9.030;2022-11-15T02:54:03;98209.34;;;9.64;67.72
68137;BME280;54939;50.826;9.030;2022-11-15T02:54:34;98206.84;;;9.63;67.85
68137;BME280;54939;50.826;9.030;2022-11-15T02:55:04;98201.50;;;9.63;67.93
68137;BME280;54939;50.826;9.030;2022-11-15T02:55:35;98204.34;;;9.61;68.03
68137;BME280;54939;50.826;9.030;2022-11-15T02:56:07;98205.16;;;9.62;68.07
68137;BME280;54939;50.826;9.030;2022-11-15T02:56:39;98207.84;;;9.62;67.96
68137;BME280;54939;50.826;9.030;2022-11-15T02:57:14;98207.84;;;9.62;67.91
68137;BME280;54939;50.826;9.030;2022-11-15T02:57:51;98207.84;;;9.62;67.97
68137;BME280;54939;50.826;9.030;2022-11-15T02:58:27;98209.66;;;9.61;68.04
68137;BME280;54939;50.826;9.030;2022-11-15T02:59:09;98210.50;;;9.62;68.10
68137;BME280;54939;50.826;9.030;2022-11-15T03:00:15;98204.19;;;9.63;68.29
68137;BME280;54939;50.826;9.030;2022-11-15T03:00:51;98209.66;;;9.61;68.11
68137;BME280;54939;50.826;9.030;2022-11-15T03:02:53;98206.53;;;9.66;67.60
68137;BME280;54939;50.826;9.030;2022-11-15T03:03:32;98206.72;;;9.72;67.68
68137;BME280;54939;50.826;9.030;2022-11-15T03:04:23;98201.91;;;9.68;67.97
68137;BME280;54939;50.826;9.030;2022-11-15T03:05:08;98202.41;;;9.71;67.83
68137;BME280;54939;50.826;9.030;2022-11-15T03:05:54;98196.91;;;9.73;67.59